KBEC/BEC METAR and TAF weather

Enter ICAO airport designator
Station Type Date Time Source
KBEC METAR 2019/12/14 06:15 UTC NOAA

KBEC 140615Z AUTO 33006KT 10SM CLR 05/M01 A2987 RMK AO2 T00461007


Station Type Date Time Source
KBEC Decoded METAR 2019/12/14 06:15 UTC NOAA

Station name not available
Dec 14, 2019 - 01:15 AM EST / 2019.12.14 0615 UTC
Wind: from the NNW (330 degrees) at 7 MPH (6 KT):0
Visibility: 10 mile(s):0
Sky conditions: clear
Temperature: 40.3 F (4.6 C)
Dew Point: 30.7 F (-0.7 C)
Relative Humidity: 68%
Pressure (altimeter): 29.87 in. Hg (1011 hPa)
ob: KBEC 140615Z AUTO 33006KT 10SM CLR 05/M01 A2987 RMK AO2 T00461007
cycle: 6

Station Type Date Time Source
KBEC TAF UTC NOAA

Error!

Example: see airport list